Terminal Aerodrome Forecast
Issued by NWS Atlanta, GA

Home | Current Version | Previous Version | Text Only | Print | Product List | Glossary On
Versions: 1 2 3 4 5 6 7 8 9 10 11 12 13 14 15 16 17 18 19 20 21
000
FTUS42 KFFC 050540
TAFCSG
TAF
KCSG 050540Z 0506/0606 33008KT P6SM FEW100
     FM051400 31014G24KT P6SM SKC
     FM051700 30018G28KT P6SM SKC
     FM060200 32012G20KT P6SM SKC=

USA.gov is the U.S. government's official web portal to all federal, state and local government web resources and services.